createdAt,value
2019-01-11T00:01:23.293Z,19.97
2019-01-11T00:03:54.364Z,18.70
2019-01-11T00:06:25.234Z,20.03
2019-01-11T00:08:56.164Z,19.47
2019-01-11T00:11:27.029Z,20.50
2019-01-11T00:13:58.235Z,20.40
2019-01-11T00:16:29.118Z,20.10
2019-01-11T00:19:06.973Z,19.70
2019-01-11T00:21:34.109Z,20.60
2019-01-11T00:24:05.196Z,21.20
2019-01-11T00:26:36.532Z,21.13
2019-01-11T00:29:07.496Z,22.00
2019-01-11T00:31:38.368Z,21.50
2019-01-11T00:34:09.279Z,20.83
2019-01-11T00:36:40.180Z,21.73
2019-01-11T00:39:11.196Z,21.20
2019-01-11T00:41:42.538Z,23.27
2019-01-11T00:44:13.408Z,23.80
2019-01-11T00:46:44.314Z,22.80
2019-01-11T00:49:15.199Z,21.83
2019-01-11T00:51:46.126Z,22.77
2019-01-11T00:54:17.069Z,21.80
2019-01-11T00:56:47.948Z,22.57
2019-01-11T00:59:18.846Z,22.43
2019-01-11T01:01:50.012Z,23.73
2019-01-11T01:04:21.027Z,24.00
2019-01-11T01:06:51.906Z,24.50
2019-01-11T01:09:22.800Z,23.60
2019-01-11T01:11:53.732Z,23.27
2019-01-11T01:14:24.610Z,23.30
2019-01-11T01:16:55.530Z,22.80
2019-01-11T01:19:26.406Z,26.13
2019-01-11T01:21:57.389Z,22.87
2019-01-11T01:24:29.286Z,24.17
2019-01-11T01:27:00.258Z,24.10
2019-01-11T01:29:31.172Z,24.90
2019-01-11T01:32:02.071Z,25.63
2019-01-11T01:34:33.233Z,24.27
2019-01-11T01:37:04.434Z,24.50
2019-01-11T01:39:35.311Z,23.03
2019-01-11T01:42:06.644Z,24.50
2019-01-11T01:44:37.531Z,22.87
2019-01-11T01:47:08.415Z,24.27
2019-01-11T01:49:39.321Z,22.70
2019-01-11T01:52:10.212Z,23.60
2019-01-11T01:54:41.126Z,21.30
2019-01-11T01:57:12.013Z,23.37
2019-01-11T01:59:43.163Z,23.30
2019-01-11T02:02:14.352Z,22.93
2019-01-11T02:04:45.249Z,22.47
2019-01-11T02:07:16.169Z,21.53
2019-01-11T02:09:47.072Z,20.27
2019-01-11T02:12:17.936Z,22.77
2019-01-11T02:14:48.849Z,23.43
2019-01-11T02:17:20.127Z,22.03
2019-01-11T02:19:51.342Z,22.57
2019-01-11T02:22:22.233Z,22.47
2019-01-11T02:24:53.462Z,21.70
2019-01-11T02:27:24.359Z,22.00
2019-01-11T02:29:55.228Z,21.30
2019-01-11T02:32:26.170Z,22.00
2019-01-11T02:34:57.048Z,21.73
2019-01-11T02:37:27.932Z,22.20
2019-01-11T02:39:59.124Z,19.80
2019-01-11T02:42:30.006Z,20.70
2019-01-11T02:45:00.927Z,20.53
2019-01-11T02:47:31.814Z,21.30
2019-01-11T02:50:02.978Z,20.73
2019-01-11T02:52:34.250Z,21.13
2019-01-11T02:55:05.681Z,19.87
2019-01-11T02:57:36.604Z,20.03
2019-01-11T03:00:15.021Z,18.17
2019-01-11T03:02:46.297Z,18.53
2019-01-11T03:05:18.152Z,18.00
2019-01-11T03:07:49.600Z,17.53
2019-01-11T03:10:23.070Z,18.20
2019-01-11T03:12:53.944Z,18.23
2019-01-11T03:15:24.862Z,17.37
2019-01-11T03:17:55.739Z,17.40
2019-01-11T03:20:26.623Z,17.13
2019-01-11T03:22:57.524Z,16.73
2019-01-11T03:25:28.396Z,17.40
2019-01-11T03:27:59.320Z,18.07
2019-01-11T03:30:30.271Z,17.50
2019-01-11T03:33:01.147Z,15.97
2019-01-11T03:35:32.127Z,17.83
2019-01-11T03:38:03.116Z,16.20
2019-01-11T03:40:34.052Z,16.47
2019-01-11T03:43:05.018Z,16.00
2019-01-11T03:45:35.909Z,15.83
2019-01-11T03:48:06.904Z,14.30
2019-01-11T03:50:37.779Z,15.63
2019-01-11T03:53:08.708Z,15.90
2019-01-11T03:55:39.581Z,16.60
2019-01-11T03:58:10.450Z,14.93
2019-01-11T04:00:41.366Z,14.70
2019-01-11T04:03:12.237Z,15.30
2019-01-11T04:05:43.161Z,14.47
2019-01-11T04:08:14.328Z,14.17
2019-01-11T04:10:45.224Z,15.37
2019-01-11T04:13:16.140Z,13.87
2019-01-11T04:15:47.412Z,14.70
2019-01-11T04:18:35.378Z,14.50
2019-01-11T04:21:06.354Z,13.77
2019-01-11T04:23:37.283Z,13.73
2019-01-11T04:26:08.164Z,13.27
2019-01-11T04:28:39.052Z,13.50
2019-01-11T04:31:09.957Z,12.47
2019-01-11T04:33:40.845Z,13.53
2019-01-11T04:36:11.782Z,12.90
2019-01-11T04:38:42.657Z,12.10
2019-01-11T04:41:13.533Z,13.90
2019-01-11T04:43:44.435Z,12.70
2019-01-11T04:46:15.316Z,12.77
2019-01-11T04:48:46.711Z,13.13
2019-01-11T04:51:17.896Z,13.80
2019-01-11T04:53:50.184Z,13.90
2019-01-11T04:56:21.085Z,13.53
2019-01-11T04:58:52.035Z,13.97
2019-01-11T05:01:22.957Z,13.73
2019-01-11T05:03:54.314Z,13.10
2019-01-11T05:06:25.500Z,13.87
2019-01-11T05:08:56.413Z,13.63
2019-01-11T05:11:27.620Z,14.50
2019-01-11T05:13:59.231Z,13.37
2019-01-11T05:16:30.298Z,14.57
2019-01-11T05:19:01.210Z,14.03
2019-01-11T05:21:32.383Z,14.63
2019-01-11T05:24:03.543Z,15.23
2019-01-11T05:26:34.446Z,14.70
2019-01-11T05:29:05.317Z,15.93
2019-01-11T05:31:36.242Z,15.23
2019-01-11T05:34:07.135Z,15.07
2019-01-11T05:36:38.011Z,15.50
2019-01-11T05:39:10.457Z,15.03
2019-01-11T05:41:41.370Z,15.97
2019-01-11T05:44:12.293Z,15.23
2019-01-11T05:46:43.172Z,15.40
2019-01-11T05:49:14.326Z,14.40
2019-01-11T05:51:45.228Z,14.77
2019-01-11T05:54:16.425Z,16.20
2019-01-11T05:56:47.355Z,15.83
2019-01-11T05:59:18.251Z,16.77
2019-01-11T06:01:49.125Z,16.50
2019-01-11T06:04:48.824Z,15.80
2019-01-11T06:07:28.557Z,16.90
2019-01-11T06:10:00.038Z,16.40
2019-01-11T06:12:31.253Z,16.97
2019-01-11T06:15:02.197Z,16.63
2019-01-11T06:17:33.376Z,18.40
2019-01-11T06:20:05.167Z,16.07
2019-01-11T06:22:36.068Z,17.07
2019-01-11T06:25:07.801Z,16.97
2019-01-11T06:27:39.612Z,17.10
2019-01-11T06:30:13.560Z,17.03
2019-01-11T06:32:44.590Z,17.60
2019-01-11T06:35:15.753Z,19.57
2019-01-11T06:37:46.648Z,19.23
2019-01-11T06:40:17.543Z,18.30
2019-01-11T06:42:48.707Z,20.00
2019-01-11T06:45:19.635Z,18.70
2019-01-11T06:47:51.099Z,19.67
2019-01-11T06:50:22.268Z,19.67
2019-01-11T06:52:53.168Z,20.83
2019-01-11T06:55:24.051Z,19.77
2019-01-11T06:57:54.982Z,20.13
2019-01-11T07:00:25.859Z,21.27
2019-01-11T07:02:56.733Z,20.00
2019-01-11T07:05:27.675Z,20.33
2019-01-11T07:07:58.543Z,19.10
2019-01-11T07:10:29.501Z,19.87
2019-01-11T07:13:00.375Z,22.00
2019-01-11T07:15:32.096Z,21.83
2019-01-11T07:18:03.105Z,21.77
2019-01-11T07:20:33.993Z,22.50
2019-01-11T07:23:05.024Z,23.70
2019-01-11T07:28:32.691Z,24.60
2019-01-11T07:31:25.621Z,22.40
2019-01-11T07:34:15.697Z,23.50
2019-01-11T07:37:06.011Z,24.20
2019-01-11T07:39:56.006Z,22.80
2019-01-11T07:52:41.733Z,23.43
2019-01-11T07:55:31.801Z,25.10
2019-01-11T08:10:57.572Z,24.53
2019-01-11T08:13:47.591Z,25.20
2019-01-11T08:19:53.740Z,24.23
2019-01-11T08:26:32.969Z,25.97
2019-01-11T08:29:22.880Z,26.80
2019-01-11T08:32:11.541Z,28.13
2019-01-11T08:38:30.817Z,27.80
2019-01-11T08:48:05.832Z,26.10
2019-01-11T08:54:11.368Z,29.63
2019-01-11T09:00:50.041Z,29.17
2019-01-11T09:07:09.002Z,28.83
2019-01-11T09:09:59.084Z,28.37
2019-01-11T09:15:49.780Z,30.57
2019-01-11T09:18:58.524Z,28.13
2019-01-11T09:25:17.632Z,26.23
2019-01-11T09:31:36.673Z,25.20
2019-01-11T09:34:26.660Z,24.50
2019-01-11T09:37:16.730Z,25.03
2019-01-11T09:50:46.762Z,22.20
2019-01-11T09:53:36.758Z,24.10
2019-01-11T09:56:45.692Z,25.80
2019-01-11T09:59:54.599Z,24.20
2019-01-11T10:15:36.818Z,17.27
2019-01-11T10:25:11.230Z,17.83
2019-01-11T10:31:17.232Z,16.57
2019-01-11T10:40:51.566Z,15.63
2019-01-11T10:43:41.607Z,16.33
2019-01-11T10:57:29.244Z,17.73
2019-01-11T11:03:53.549Z,18.03
2019-01-11T11:06:43.834Z,17.67
2019-01-11T11:12:41.916Z,19.40
2019-01-11T11:22:21.895Z,19.60
2019-01-11T11:25:51.572Z,18.73
2019-01-11T11:28:41.588Z,17.73
2019-01-11T11:31:31.567Z,18.10
2019-01-11T11:37:38.611Z,17.50
2019-01-11T11:41:08.205Z,16.43
2019-01-11T11:50:45.375Z,16.97
2019-01-11T11:56:50.706Z,18.17
2019-01-11T11:59:41.029Z,18.97
2019-01-11T12:05:26.778Z,18.87
2019-01-11T12:08:36.097Z,16.60
2019-01-11T12:11:18.825Z,16.27
2019-01-11T12:20:39.902Z,19.03
2019-01-11T12:26:58.950Z,18.00
2019-01-11T12:29:49.334Z,20.60
2019-01-11T12:42:24.771Z,19.33
2019-01-11T12:45:54.264Z,20.53
2019-01-11T12:48:44.317Z,16.80
2019-01-11T12:55:03.465Z,14.43
2019-01-11T12:57:53.880Z,12.50
2019-01-11T13:01:03.167Z,13.70
2019-01-11T13:10:30.824Z,10.13
2019-01-11T13:23:21.898Z,10.00
2019-01-11T13:32:08.927Z,8.17
2019-01-11T13:34:58.990Z,7.80
2019-01-11T13:38:08.422Z,8.20
2019-01-11T13:47:43.025Z,7.50
2019-01-11T13:50:51.952Z,8.17
2019-01-11T13:57:16.908Z,6.93
2019-01-11T15:30:33.368Z,2.47
2019-01-11T15:33:06.105Z,2.60
2019-01-11T15:35:36.973Z,2.47
2019-01-11T15:38:08.438Z,3.37
2019-01-11T15:40:39.731Z,2.70
2019-01-11T15:43:10.607Z,2.90
2019-01-11T15:45:41.562Z,2.27
2019-01-11T15:48:19.745Z,2.60
2019-01-11T15:51:00.255Z,3.10
2019-01-11T15:53:39.141Z,3.13
2019-01-11T15:56:12.585Z,2.77
2019-01-11T15:58:43.758Z,2.90
2019-01-11T16:01:14.654Z,2.30
2019-01-11T16:03:45.880Z,3.33
2019-01-11T16:06:34.813Z,3.50
2019-01-11T16:10:05.650Z,6.20
2019-01-11T16:12:58.720Z,5.77
2019-01-11T16:16:33.750Z,6.20
2019-01-11T16:19:04.648Z,7.87
2019-01-11T16:21:35.844Z,3.60
2019-01-11T16:24:07.383Z,3.23
2019-01-11T16:26:38.285Z,3.60
2019-01-11T16:29:09.234Z,3.20
2019-01-11T16:31:40.152Z,3.20
2019-01-11T16:34:11.049Z,4.10
2019-01-11T16:36:41.981Z,3.43
2019-01-11T16:39:12.964Z,3.53
2019-01-11T16:41:43.845Z,3.50
2019-01-11T16:44:14.759Z,3.00
2019-01-11T16:46:45.651Z,3.00
2019-01-11T16:49:16.580Z,3.53
2019-01-11T16:51:47.465Z,2.50
2019-01-11T16:54:18.371Z,5.20
2019-01-11T16:56:49.290Z,4.60
2019-01-11T16:59:20.171Z,2.70
2019-01-11T17:01:51.387Z,2.50
2019-01-11T17:04:23.136Z,2.10
2019-01-11T17:06:54.341Z,2.57
2019-01-11T17:09:25.301Z,2.10
2019-01-11T17:11:56.326Z,2.60
2019-01-11T17:14:27.266Z,2.63
2019-01-11T17:16:58.153Z,2.60
2019-01-11T17:19:29.031Z,1.80
2019-01-11T17:21:59.963Z,2.70
2019-01-11T17:24:30.831Z,2.73
2019-01-11T17:27:01.771Z,2.40
2019-01-11T17:29:32.658Z,3.43
2019-01-11T17:32:03.554Z,3.30
2019-01-11T17:34:34.556Z,2.83
2019-01-11T17:37:05.513Z,3.00
2019-01-11T17:39:37.034Z,3.20
2019-01-11T17:42:08.207Z,2.87
2019-01-11T17:44:39.081Z,2.77
2019-01-11T17:47:09.991Z,2.50
2019-01-11T17:49:40.881Z,3.03
2019-01-11T17:52:11.883Z,3.13
2019-01-11T17:54:42.768Z,3.90
2019-01-11T17:57:13.715Z,3.60
2019-01-11T17:59:44.866Z,2.40
2019-01-11T18:02:15.836Z,2.90
2019-01-11T18:04:47.111Z,3.60
2019-01-11T18:07:18.013Z,2.63
2019-01-11T18:09:48.958Z,3.30
2019-01-11T18:12:20.226Z,3.00
2019-01-11T18:14:51.246Z,3.50
2019-01-11T18:17:22.159Z,3.70
2019-01-11T18:19:53.362Z,3.07
2019-01-11T18:22:24.585Z,3.90
2019-01-11T18:24:56.336Z,3.63
2019-01-11T18:27:27.229Z,3.37
2019-01-11T18:29:58.437Z,3.67
2019-01-11T18:32:29.341Z,3.70
2019-01-11T18:35:00.672Z,3.67
2019-01-11T18:37:33.113Z,3.10
2019-01-11T18:40:05.684Z,3.87
2019-01-11T18:42:36.605Z,3.50
2019-01-11T18:45:09.327Z,4.10
2019-01-11T18:47:40.255Z,3.83
2019-01-11T18:50:15.929Z,3.83
2019-01-11T18:52:47.235Z,3.40
2019-01-11T18:55:18.165Z,3.90
2019-01-11T18:57:49.083Z,4.30
2019-01-11T19:00:24.133Z,5.00
2019-01-11T19:02:55.286Z,5.00
2019-01-11T19:05:26.521Z,3.70
2019-01-11T19:07:57.777Z,4.30
2019-01-11T19:10:28.971Z,4.47
2019-01-11T19:13:00.280Z,3.90
2019-01-11T19:15:31.783Z,4.33
2019-01-11T19:18:03.389Z,4.20
2019-01-11T19:20:34.746Z,5.10
2019-01-11T19:23:06.410Z,5.03
2019-01-11T19:25:37.346Z,4.50
2019-01-11T19:28:08.613Z,5.77
2019-01-11T19:30:39.529Z,4.40
2019-01-11T19:33:10.719Z,4.30
2019-01-11T19:35:42.458Z,4.63
2019-01-11T19:38:13.747Z,5.97
2019-01-11T19:40:44.942Z,4.33
2019-01-11T19:43:15.957Z,4.60
2019-01-11T19:45:46.907Z,5.90
2019-01-11T19:48:17.911Z,5.80
2019-01-11T19:50:48.963Z,6.10
2019-01-11T19:53:19.874Z,5.93
2019-01-11T19:55:51.000Z,5.23
2019-01-11T19:58:21.969Z,5.07
2019-01-11T20:00:53.112Z,5.50
2019-01-11T20:03:25.231Z,5.83
2019-01-11T20:05:56.748Z,5.60
2019-01-11T20:08:29.005Z,6.50
2019-01-11T20:11:00.062Z,5.40
2019-01-11T20:13:31.334Z,5.73
2019-01-11T20:16:02.313Z,5.47
2019-01-11T20:18:33.911Z,5.40
2019-01-11T20:21:05.071Z,5.37
2019-01-11T20:23:37.039Z,7.37
2019-01-11T20:26:08.295Z,5.73
2019-01-11T20:28:39.347Z,5.73
2019-01-11T20:31:10.309Z,5.07
2019-01-11T20:33:41.201Z,4.90
2019-01-11T20:36:13.240Z,4.87
2019-01-11T20:38:44.133Z,4.90
2019-01-11T20:41:15.299Z,5.70
2019-01-11T20:43:46.237Z,6.00
2019-01-11T20:46:17.473Z,5.20
2019-01-11T20:48:48.532Z,6.83
2019-01-11T20:51:19.542Z,5.70
2019-01-11T20:53:50.441Z,5.13
2019-01-11T20:56:21.342Z,5.40
2019-01-11T20:58:52.272Z,6.90
2019-01-11T21:01:23.410Z,6.00
2019-01-11T21:03:54.404Z,6.27
2019-01-11T21:06:26.189Z,5.93
2019-01-11T21:08:57.094Z,5.10
2019-01-11T21:11:30.236Z,6.67
2019-01-11T21:14:01.327Z,6.97
2019-01-11T21:16:33.575Z,7.00
2019-01-11T21:19:05.429Z,6.00
2019-01-11T21:21:36.371Z,7.70
2019-01-11T21:24:07.942Z,5.87
2019-01-11T21:26:40.325Z,7.53
2019-01-11T21:29:11.267Z,6.20
2019-01-11T21:31:42.166Z,6.60
2019-01-11T21:34:13.060Z,7.07
2019-01-11T21:36:44.075Z,7.77
2019-01-11T21:39:15.247Z,7.20
2019-01-11T21:41:46.177Z,6.67
2019-01-11T21:44:17.117Z,6.60
2019-01-11T21:46:48.029Z,7.60
2019-01-11T21:49:18.941Z,6.67
2019-01-11T21:51:49.919Z,5.73
2019-01-11T21:54:20.830Z,6.83
2019-01-11T21:56:52.022Z,7.53
2019-01-11T21:59:23.040Z,7.40
2019-01-11T22:01:53.992Z,6.30
2019-01-11T22:04:24.884Z,7.20
2019-01-11T22:06:56.076Z,7.33
2019-01-11T22:09:27.058Z,7.27
2019-01-11T22:11:57.981Z,6.83
2019-01-11T22:14:28.932Z,7.70
2019-01-11T22:17:00.468Z,7.70
2019-01-11T22:19:31.649Z,7.83
2019-01-11T22:22:02.543Z,7.27
2019-01-11T22:24:33.492Z,9.53
2019-01-11T22:27:04.384Z,6.97
2019-01-11T22:29:35.970Z,7.37
2019-01-11T22:32:07.209Z,6.97
2019-01-11T22:34:38.119Z,7.47
2019-01-11T22:37:09.032Z,9.87
2019-01-11T22:39:40.139Z,7.73
2019-01-11T22:42:11.029Z,7.33
2019-01-11T22:44:41.918Z,8.00
2019-01-11T22:47:13.310Z,8.50
2019-01-11T22:49:44.229Z,8.57
2019-01-11T22:52:15.087Z,6.57
2019-01-11T22:54:46.023Z,7.20
2019-01-11T22:57:16.941Z,7.03
2019-01-11T22:59:47.866Z,7.00
2019-01-11T23:02:45.967Z,7.03
2019-01-11T23:05:17.209Z,7.87
2019-01-11T23:07:59.880Z,6.73
2019-01-11T23:11:14.031Z,7.10
2019-01-11T23:13:45.244Z,6.60
2019-01-11T23:16:27.473Z,8.17
2019-01-11T23:19:00.112Z,7.73
2019-01-11T23:21:31.002Z,7.53
2019-01-11T23:24:01.933Z,7.67
2019-01-11T23:26:32.816Z,6.90
2019-01-11T23:29:03.742Z,7.97
2019-01-11T23:31:34.952Z,7.10
2019-01-11T23:34:06.065Z,7.60
2019-01-11T23:36:37.360Z,6.10
2019-01-11T23:39:09.836Z,7.73
2019-01-11T23:41:40.721Z,6.40
2019-01-11T23:44:11.630Z,7.90
2019-01-11T23:46:42.523Z,6.40
2019-01-11T23:49:13.470Z,7.37
2019-01-11T23:51:44.634Z,5.93
2019-01-11T23:54:15.511Z,8.03
2019-01-11T23:56:46.446Z,7.90
2019-01-11T23:59:17.333Z,7.77
